CYKA

Kamloops Airport

Airport
ICAO code
CYKA
Summary
ICAO Region
NAM
ICAO Territory
Location

Kamloops, British Columbia,

Coordinates
50° 42' 8" N , 120° 26' 31" W
KCC
Airport BS
Bird Strike
Metar
Observation
CYKA 280500Z 27010G16KT 20SM FEW012 BKN025 BKN040 OVC070 M02/M10 A2988 RMK SF1SC5SC2AC1 SF TR SLP138
Station
Kamloops, B. C.
Date/Time
2022-11-28 05:00:00
Wind direction
270°
Wind speed
10 kts
Lowest cloud amount
few clouds
Temperature
-2°C
Dew point
-10°C
Humidity
54%
Weather condition
n/a

Description

Regional airport located near Kamloops, British Columbia.

Climatology

Semi-arid Steppe climate (Köppen climate classification BSk) - Little precipitation, hot summers and cold winters, sometimes with large changes in temperature in a 24 hour period.

Runways

Designator Length Width Surface Rops
4/22 632 15 ASP Yes/Yes
8/26 1829 45 ASP Yes/Yes

Airport map

Aerial View

SKYbrary Partners:

Safety knowledge contributed by: